createdAt,value
2018-02-27T00:02:05.586Z,71.77
2018-02-27T00:04:33.006Z,71.62
2018-02-27T00:07:00.426Z,70.48
2018-02-27T00:09:27.846Z,69.73
2018-02-27T00:11:55.270Z,69.44
2018-02-27T00:14:22.700Z,69.87
2018-02-27T00:16:50.117Z,69.44
2018-02-27T00:19:17.548Z,68.84
2018-02-27T00:21:44.961Z,68.67
2018-02-27T00:24:12.380Z,69.03
2018-02-27T00:26:39.806Z,69.08
2018-02-27T00:29:07.286Z,69.17
2018-02-27T00:31:34.663Z,69.67
2018-02-27T00:34:02.078Z,69.88
2018-02-27T00:36:29.500Z,69.39
2018-02-27T00:38:56.915Z,69.58
2018-02-27T00:41:24.339Z,69.37
2018-02-27T00:43:51.757Z,69.82
2018-02-27T00:46:19.182Z,70.24
2018-02-27T00:48:46.599Z,70.02
2018-02-27T00:51:14.031Z,70.33
2018-02-27T00:53:41.451Z,70.51
2018-02-27T00:56:08.867Z,70.00
2018-02-27T00:58:36.281Z,70.13
2018-02-27T01:01:03.709Z,70.20
2018-02-27T01:03:31.135Z,68.59
2018-02-27T01:05:58.554Z,66.38
2018-02-27T01:08:25.974Z,64.46
2018-02-27T01:10:53.417Z,62.41
2018-02-27T01:13:20.832Z,61.29
2018-02-27T01:15:48.265Z,60.96
2018-02-27T01:18:15.686Z,61.52
2018-02-27T01:20:43.121Z,61.78
2018-02-27T01:23:10.546Z,61.40
2018-02-27T01:25:37.966Z,60.93
2018-02-27T01:28:05.385Z,61.17
2018-02-27T01:30:32.812Z,61.16
2018-02-27T01:33:00.221Z,61.31
2018-02-27T01:35:27.646Z,61.43
2018-02-27T01:37:55.057Z,61.20
2018-02-27T01:40:22.474Z,61.15
2018-02-27T01:42:49.899Z,61.43
2018-02-27T01:45:17.314Z,61.71
2018-02-27T01:47:44.733Z,62.00
2018-02-27T01:50:12.150Z,61.81
2018-02-27T01:52:39.635Z,61.93
2018-02-27T01:55:07.050Z,62.12
2018-02-27T01:57:34.478Z,62.01
2018-02-27T02:00:01.890Z,62.87
2018-02-27T02:02:29.310Z,62.47
2018-02-27T02:04:56.726Z,62.67
2018-02-27T02:07:24.150Z,62.33
2018-02-27T02:09:51.566Z,62.91
2018-02-27T02:12:18.998Z,62.78
2018-02-27T02:14:46.426Z,63.02
2018-02-27T02:17:13.858Z,63.47
2018-02-27T02:19:41.274Z,63.19
2018-02-27T02:22:08.721Z,63.52
2018-02-27T02:24:36.134Z,63.73
2018-02-27T02:27:03.578Z,63.45
2018-02-27T02:29:30.991Z,63.49
2018-02-27T02:31:58.414Z,63.82
2018-02-27T02:34:25.832Z,63.42
2018-02-27T02:36:53.253Z,63.40
2018-02-27T02:39:20.727Z,63.91
2018-02-27T02:41:59.995Z,64.05
2018-02-27T02:44:27.411Z,63.71
2018-02-27T02:46:54.834Z,64.12
2018-02-27T02:49:22.250Z,64.05
2018-02-27T02:51:49.678Z,64.18
2018-02-27T02:54:17.099Z,64.20
2018-02-27T02:56:44.522Z,64.04
2018-02-27T02:59:11.946Z,64.61
2018-02-27T03:01:39.365Z,64.36
2018-02-27T03:04:06.783Z,64.46
2018-02-27T03:06:34.211Z,64.25
2018-02-27T03:09:01.635Z,64.38
2018-02-27T03:11:29.057Z,64.22
2018-02-27T03:13:56.482Z,64.15
2018-02-27T03:16:23.909Z,64.11
2018-02-27T03:18:51.334Z,64.67
2018-02-27T03:21:18.758Z,64.24
2018-02-27T03:23:46.177Z,64.87
2018-02-27T03:26:13.600Z,65.02
2018-02-27T03:28:41.018Z,64.82
2018-02-27T03:31:08.440Z,65.33
2018-02-27T03:33:35.873Z,65.22
2018-02-27T03:36:03.289Z,65.61
2018-02-27T03:38:30.714Z,65.04
2018-02-27T03:40:58.138Z,65.12
2018-02-27T03:43:25.565Z,65.28
2018-02-27T03:45:52.978Z,65.63
2018-02-27T03:48:20.418Z,65.91
2018-02-27T03:50:47.826Z,66.17
2018-02-27T03:53:15.253Z,66.36
2018-02-27T03:55:42.681Z,66.54
2018-02-27T03:58:10.107Z,66.60
2018-02-27T04:00:37.526Z,67.05
2018-02-27T04:03:04.950Z,66.49
2018-02-27T04:05:32.347Z,66.51
2018-02-27T04:07:59.751Z,66.57
2018-02-27T04:10:27.151Z,66.75
2018-02-27T04:12:54.567Z,66.82
2018-02-27T04:15:21.975Z,67.49
2018-02-27T04:17:49.374Z,67.90
2018-02-27T04:20:16.774Z,68.14
2018-02-27T04:22:44.191Z,68.44
2018-02-27T04:25:11.603Z,68.60
2018-02-27T04:27:39.011Z,68.85
2018-02-27T04:30:06.410Z,68.78
2018-02-27T04:32:33.818Z,68.94
2018-02-27T04:35:01.222Z,69.73
2018-02-27T04:37:28.657Z,69.75
2018-02-27T04:39:56.079Z,70.26
2018-02-27T04:42:23.502Z,70.21
2018-02-27T04:44:50.922Z,70.62
2018-02-27T04:47:18.785Z,71.10
2018-02-27T04:49:46.234Z,71.37
2018-02-27T04:52:13.645Z,71.46
2018-02-27T04:54:41.094Z,72.09
2018-02-27T04:57:08.510Z,72.03
2018-02-27T04:59:35.936Z,71.82
2018-02-27T05:02:03.357Z,72.11
2018-02-27T05:04:30.790Z,72.07
2018-02-27T05:06:58.211Z,72.56
2018-02-27T05:09:25.658Z,72.91
2018-02-27T05:11:53.059Z,72.77
2018-02-27T05:14:20.478Z,73.19
2018-02-27T05:16:47.898Z,73.17
2018-02-27T05:19:15.318Z,73.57
2018-02-27T05:21:42.741Z,73.96
2018-02-27T05:24:10.162Z,73.95
2018-02-27T05:26:37.579Z,74.58
2018-02-27T05:29:05.001Z,74.95
2018-02-27T05:31:32.424Z,75.38
2018-02-27T05:33:59.841Z,75.88
2018-02-27T05:36:27.258Z,76.03
2018-02-27T05:38:54.690Z,76.00
2018-02-27T05:41:22.101Z,75.96
2018-02-27T05:43:49.521Z,76.09
2018-02-27T05:46:16.938Z,76.35
2018-02-27T05:48:44.382Z,76.56
2018-02-27T05:51:11.791Z,76.71
2018-02-27T05:53:39.230Z,77.06
2018-02-27T05:56:06.675Z,77.40
2018-02-27T05:58:34.090Z,77.35
2018-02-27T06:01:01.841Z,77.54
2018-02-27T06:03:29.303Z,77.70
2018-02-27T06:05:56.733Z,77.36
2018-02-27T06:08:24.150Z,77.78
2018-02-27T06:10:51.570Z,77.80
2018-02-27T06:13:19.104Z,77.60
2018-02-27T06:15:46.534Z,77.82
2018-02-27T06:18:14.013Z,77.95
2018-02-27T06:20:41.440Z,77.96
2018-02-27T06:23:08.911Z,78.19
2018-02-27T06:25:36.338Z,78.15
2018-02-27T06:28:03.761Z,78.19
2018-02-27T06:30:31.214Z,78.11
2018-02-27T06:32:58.627Z,78.18
2018-02-27T06:35:26.070Z,77.98
2018-02-27T06:37:53.483Z,78.03
2018-02-27T06:40:20.921Z,78.29
2018-02-27T06:42:48.332Z,78.33
2018-02-27T06:45:15.758Z,78.29
2018-02-27T06:47:43.189Z,78.47
2018-02-27T06:50:10.606Z,78.94
2018-02-27T06:52:38.022Z,78.38
2018-02-27T06:55:05.449Z,78.31
2018-02-27T06:57:32.870Z,78.56
2018-02-27T07:00:00.291Z,78.64
2018-02-27T07:02:27.709Z,78.60
2018-02-27T07:04:55.134Z,78.59
2018-02-27T07:07:22.570Z,78.50
2018-02-27T07:09:49.994Z,78.70
2018-02-27T07:12:17.414Z,78.57
2018-02-27T07:14:44.846Z,78.61
2018-02-27T07:17:12.265Z,78.54
2018-02-27T07:19:39.686Z,78.42
2018-02-27T07:22:07.110Z,78.12
2018-02-27T07:24:34.526Z,77.49
2018-02-27T07:27:01.948Z,77.29
2018-02-27T07:29:29.359Z,76.76
2018-02-27T07:31:56.795Z,76.60
2018-02-27T07:34:24.210Z,76.36
2018-02-27T07:36:51.643Z,78.22
2018-02-27T07:39:19.062Z,76.37
2018-02-27T07:41:46.483Z,75.86
2018-02-27T07:44:13.950Z,75.83
2018-02-27T07:46:41.378Z,75.90
2018-02-27T07:49:08.793Z,75.82
2018-02-27T07:51:36.224Z,75.44
2018-02-27T07:54:03.650Z,74.64
2018-02-27T07:56:31.070Z,74.82
2018-02-27T07:58:58.490Z,73.85
2018-02-27T08:01:25.910Z,73.47
2018-02-27T08:03:53.326Z,72.59
2018-02-27T08:06:20.752Z,72.43
2018-02-27T08:08:48.169Z,72.19
2018-02-27T08:11:15.615Z,71.14
2018-02-27T08:13:43.035Z,71.16
2018-02-27T08:16:10.505Z,70.73
2018-02-27T08:18:37.883Z,70.39
2018-02-27T08:21:05.306Z,68.65
2018-02-27T08:23:32.718Z,68.24
2018-02-27T08:26:00.141Z,66.84
2018-02-27T08:28:27.566Z,66.15
2018-02-27T08:30:54.990Z,64.31
2018-02-27T08:33:22.406Z,64.79
2018-02-27T08:35:49.830Z,65.42
2018-02-27T08:38:17.249Z,64.88
2018-02-27T08:40:44.670Z,62.19
2018-02-27T08:43:12.101Z,61.60
2018-02-27T08:45:39.530Z,60.61
2018-02-27T08:48:06.966Z,60.26
2018-02-27T08:50:34.385Z,60.61
2018-02-27T08:53:01.818Z,60.52
2018-02-27T08:55:29.232Z,59.98
2018-02-27T08:57:56.662Z,59.10
2018-02-27T09:00:24.077Z,58.62
2018-02-27T09:02:51.502Z,57.89
2018-02-27T09:05:18.914Z,56.74
2018-02-27T09:07:46.330Z,56.11
2018-02-27T09:10:13.748Z,55.67
2018-02-27T09:12:41.170Z,55.67
2018-02-27T09:15:08.590Z,54.66
2018-02-27T09:17:36.015Z,53.79
2018-02-27T09:20:03.424Z,54.44
2018-02-27T09:22:30.889Z,53.20
2018-02-27T09:24:58.306Z,51.24
2018-02-27T09:27:25.751Z,50.69
2018-02-27T09:29:53.166Z,51.07
2018-02-27T09:32:20.614Z,50.56
2018-02-27T09:34:48.031Z,49.35
2018-02-27T09:37:15.446Z,48.69
2018-02-27T09:39:42.868Z,48.93
2018-02-27T09:42:10.285Z,47.93
2018-02-27T09:44:37.706Z,47.61
2018-02-27T09:47:05.134Z,47.55
2018-02-27T09:49:32.582Z,46.95
2018-02-27T09:51:59.994Z,46.01
2018-02-27T09:54:27.410Z,45.78
2018-02-27T09:56:54.865Z,43.64
2018-02-27T09:59:22.281Z,44.60
2018-02-27T10:01:49.699Z,43.95
2018-02-27T10:04:17.102Z,42.10
2018-02-27T10:06:44.534Z,41.81
2018-02-27T10:09:11.942Z,41.11
2018-02-27T10:11:39.386Z,39.96
2018-02-27T10:14:06.812Z,40.05
2018-02-27T10:16:34.222Z,38.40
2018-02-27T10:19:01.647Z,37.89
2018-02-27T10:21:29.055Z,36.94
2018-02-27T10:23:56.474Z,36.53
2018-02-27T10:26:23.879Z,36.66
2018-02-27T10:28:51.302Z,36.72
2018-02-27T10:31:18.714Z,35.66
2018-02-27T10:33:46.129Z,34.81
2018-02-27T10:36:13.542Z,36.82
2018-02-27T10:38:40.958Z,33.79
2018-02-27T10:41:08.366Z,33.56
2018-02-27T10:43:35.788Z,33.23
2018-02-27T10:46:03.190Z,34.19
2018-02-27T10:48:30.607Z,34.58
2018-02-27T10:50:58.014Z,32.65
2018-02-27T10:53:25.432Z,33.28
2018-02-27T10:55:52.849Z,32.92
2018-02-27T10:58:20.262Z,33.32
2018-02-27T11:00:50.514Z,33.91
2018-02-27T11:03:17.934Z,32.79
2018-02-27T11:05:45.348Z,32.39
2018-02-27T11:08:12.767Z,33.53
2018-02-27T11:10:40.173Z,32.98
2018-02-27T11:13:07.594Z,32.60
2018-02-27T11:15:35.006Z,33.03
2018-02-27T11:18:02.466Z,31.98
2018-02-27T11:20:29.878Z,32.19
2018-02-27T11:22:57.295Z,31.67
2018-02-27T11:25:24.711Z,32.08
2018-02-27T11:27:52.122Z,30.85
2018-02-27T11:30:19.540Z,31.29
2018-02-27T11:32:46.958Z,31.39
2018-02-27T11:35:14.369Z,31.56
2018-02-27T11:37:41.781Z,32.51
2018-02-27T11:40:09.190Z,32.67
2018-02-27T11:42:36.610Z,33.85
2018-02-27T11:45:04.018Z,33.45
2018-02-27T11:47:31.426Z,32.26
2018-02-27T11:49:58.841Z,32.07
2018-02-27T11:52:26.249Z,32.84
2018-02-27T11:54:53.666Z,31.34
2018-02-27T11:57:21.079Z,31.70
2018-02-27T11:59:48.496Z,33.26
2018-02-27T12:02:15.900Z,32.42
2018-02-27T12:04:43.315Z,32.83
2018-02-27T12:07:10.718Z,32.71
2018-02-27T12:09:38.142Z,32.78
2018-02-27T12:12:05.550Z,30.34
2018-02-27T12:14:32.973Z,31.46
2018-02-27T12:17:00.386Z,31.82
2018-02-27T12:19:27.802Z,31.52
2018-02-27T12:21:55.214Z,30.97
2018-02-27T12:24:22.637Z,30.27
2018-02-27T12:26:50.050Z,32.18
2018-02-27T12:29:17.516Z,33.04
2018-02-27T12:31:44.883Z,30.98
2018-02-27T12:34:12.297Z,30.94
2018-02-27T12:36:39.714Z,31.70
2018-02-27T12:39:07.136Z,30.92
2018-02-27T12:41:34.554Z,31.20
2018-02-27T12:44:01.974Z,30.56
2018-02-27T12:46:29.382Z,31.98
2018-02-27T12:48:56.805Z,32.63
2018-02-27T12:51:24.210Z,30.97
2018-02-27T12:53:51.642Z,30.74
2018-02-27T12:56:19.045Z,30.97
2018-02-27T12:58:46.467Z,32.06
2018-02-27T13:01:13.881Z,31.16
2018-02-27T13:03:41.319Z,30.60
2018-02-27T13:06:08.714Z,30.96
2018-02-27T13:08:36.117Z,31.88
2018-02-27T13:11:03.526Z,32.57
2018-02-27T13:13:30.934Z,31.73
2018-02-27T13:15:58.389Z,31.94
2018-02-27T13:18:25.790Z,32.25
2018-02-27T13:20:53.206Z,32.77
2018-02-27T13:23:20.618Z,32.90
2018-02-27T13:25:48.042Z,31.52
2018-02-27T13:28:15.458Z,32.29
2018-02-27T13:30:42.881Z,33.25
2018-02-27T13:33:11.226Z,33.51
2018-02-27T13:35:38.667Z,34.48
2018-02-27T13:38:06.071Z,32.73
2018-02-27T13:40:33.503Z,34.00
2018-02-27T13:43:00.914Z,34.71
2018-02-27T13:45:28.334Z,34.22
2018-02-27T13:47:55.755Z,35.05
2018-02-27T13:50:23.171Z,35.58
2018-02-27T13:52:50.586Z,35.38
2018-02-27T13:55:17.999Z,36.21
2018-02-27T13:57:45.418Z,36.30
2018-02-27T14:00:12.834Z,35.99
2018-02-27T14:02:40.259Z,36.28
2018-02-27T14:05:07.669Z,36.07
2018-02-27T14:07:35.470Z,36.11
2018-02-27T14:10:02.886Z,36.05
2018-02-27T14:12:30.294Z,35.72
2018-02-27T14:14:57.706Z,36.26
2018-02-27T14:17:25.117Z,36.56
2018-02-27T14:19:53.518Z,36.10
2018-02-27T14:22:20.922Z,36.85
2018-02-27T14:24:48.370Z,36.86
2018-02-27T14:27:15.777Z,36.77
2018-02-27T14:29:43.187Z,35.91
2018-02-27T14:32:10.594Z,36.06
2018-02-27T14:34:38.015Z,36.70
2018-02-27T14:37:05.458Z,37.16
2018-02-27T14:39:38.635Z,37.03
2018-02-27T14:42:06.059Z,37.49
2018-02-27T14:44:43.974Z,37.33
2018-02-27T14:47:11.391Z,37.56
2018-02-27T14:49:38.819Z,38.08
2018-02-27T14:52:06.275Z,37.81
2018-02-27T14:54:33.691Z,38.05
2018-02-27T14:57:01.116Z,38.17
2018-02-27T14:59:28.526Z,37.78
2018-02-27T15:01:55.960Z,38.42
2018-02-27T15:04:23.368Z,37.36
2018-02-27T15:06:50.783Z,38.48
2018-02-27T15:09:18.200Z,38.63
2018-02-27T15:11:45.618Z,38.82
2018-02-27T15:14:13.041Z,39.04
2018-02-27T15:16:40.486Z,38.71
2018-02-27T15:19:07.919Z,38.57
2018-02-27T15:21:36.129Z,38.99
2018-02-27T15:24:03.587Z,38.85
2018-02-27T15:26:30.998Z,38.87
2018-02-27T15:28:58.410Z,39.41
2018-02-27T15:31:25.873Z,40.02
2018-02-27T15:33:53.302Z,40.08
2018-02-27T15:36:21.755Z,40.12
2018-02-27T15:38:49.176Z,40.76
2018-02-27T15:41:16.582Z,40.48
2018-02-27T15:43:43.982Z,40.12
2018-02-27T15:46:11.463Z,39.52
2018-02-27T15:48:38.875Z,40.39
2018-02-27T15:51:06.365Z,40.80
2018-02-27T15:53:33.770Z,41.14
2018-02-27T15:56:01.254Z,41.46
2018-02-27T15:58:28.613Z,41.35
2018-02-27T16:00:56.043Z,41.54
2018-02-27T16:03:23.461Z,41.34
2018-02-27T16:05:50.862Z,41.00
2018-02-27T16:08:18.285Z,41.45
2018-02-27T16:10:45.710Z,40.91
2018-02-27T16:13:13.268Z,40.45
2018-02-27T16:15:40.706Z,41.19
2018-02-27T16:18:08.954Z,41.21
2018-02-27T16:20:36.463Z,41.47
2018-02-27T16:23:03.882Z,41.93
2018-02-27T16:25:31.298Z,42.20
2018-02-27T16:27:58.719Z,42.03
2018-02-27T16:30:26.125Z,42.59
2018-02-27T16:32:53.542Z,43.22
2018-02-27T16:35:20.946Z,44.01
2018-02-27T16:37:48.357Z,44.52
2018-02-27T16:40:15.770Z,44.54
2018-02-27T16:42:43.190Z,45.14
2018-02-27T16:45:10.599Z,45.46
2018-02-27T16:47:38.042Z,45.77
2018-02-27T16:50:06.434Z,45.78
2018-02-27T16:52:33.851Z,45.93
2018-02-27T16:55:01.262Z,45.81
2018-02-27T16:57:28.675Z,46.14
2018-02-27T16:59:56.083Z,46.65
2018-02-27T17:02:23.494Z,46.91
2018-02-27T17:04:50.914Z,46.52
2018-02-27T17:07:18.367Z,47.14
2018-02-27T17:09:45.772Z,47.06
2018-02-27T17:12:13.228Z,47.25
2018-02-27T17:14:40.607Z,47.03
2018-02-27T17:17:08.058Z,47.38
2018-02-27T17:19:35.476Z,47.76
2018-02-27T17:22:02.895Z,47.93
2018-02-27T17:24:31.409Z,48.15
2018-02-27T17:27:03.343Z,48.05
2018-02-27T17:29:30.826Z,48.43
2018-02-27T17:31:58.244Z,48.53
2018-02-27T17:34:25.650Z,48.15
2018-02-27T17:36:53.073Z,48.78
2018-02-27T17:39:20.530Z,48.57
2018-02-27T17:41:47.944Z,48.36
2018-02-27T17:44:15.362Z,48.37
2018-02-27T17:46:42.844Z,48.58
2018-02-27T17:49:10.771Z,48.96
2018-02-27T17:51:38.219Z,48.62
2018-02-27T17:54:05.672Z,48.81
2018-02-27T17:56:33.087Z,48.73
2018-02-27T17:59:00.501Z,48.88
2018-02-27T18:01:27.906Z,49.11
2018-02-27T18:03:55.321Z,49.29
2018-02-27T18:06:22.726Z,49.65
2018-02-27T18:08:50.141Z,49.42
2018-02-27T18:11:17.550Z,49.44
2018-02-27T18:13:44.966Z,49.77
2018-02-27T18:16:12.384Z,49.86
2018-02-27T18:18:39.838Z,49.83
2018-02-27T18:21:07.254Z,50.11
2018-02-27T18:23:34.684Z,50.31
2018-02-27T18:26:02.096Z,50.69
2018-02-27T18:28:29.671Z,50.93
2018-02-27T18:30:57.098Z,50.73
2018-02-27T18:33:24.498Z,50.71
2018-02-27T18:35:51.912Z,50.99
2018-02-27T18:38:19.322Z,51.45
2018-02-27T18:40:46.745Z,51.25
2018-02-27T18:43:14.153Z,51.55
2018-02-27T18:45:41.558Z,52.06
2018-02-27T18:48:08.973Z,52.12
2018-02-27T18:50:36.476Z,52.09
2018-02-27T18:53:03.885Z,52.11
2018-02-27T18:55:31.298Z,52.92
2018-02-27T18:57:58.725Z,52.53
2018-02-27T19:00:26.154Z,52.80
2018-02-27T19:02:53.553Z,52.58
2018-02-27T19:05:20.973Z,52.78
2018-02-27T19:07:48.386Z,53.28
2018-02-27T19:10:15.793Z,53.30
2018-02-27T19:12:43.213Z,53.50
2018-02-27T19:15:10.647Z,54.18
2018-02-27T19:17:38.062Z,53.77
2018-02-27T19:20:05.490Z,54.38
2018-02-27T19:22:32.917Z,54.69
2018-02-27T19:25:00.334Z,55.20
2018-02-27T19:27:27.762Z,55.39
2018-02-27T19:29:55.191Z,55.45
2018-02-27T19:32:22.655Z,55.73
2018-02-27T19:34:50.074Z,55.59
2018-02-27T19:37:17.524Z,55.77
2018-02-27T19:39:44.937Z,55.95
2018-02-27T19:42:12.357Z,56.22
2018-02-27T19:44:39.775Z,56.05
2018-02-27T19:47:07.256Z,56.06
2018-02-27T19:49:34.694Z,56.48
2018-02-27T19:52:03.137Z,56.50
2018-02-27T19:54:30.623Z,56.57
2018-02-27T19:56:58.046Z,56.57
2018-02-27T19:59:25.504Z,56.76
2018-02-27T20:01:52.910Z,56.91
2018-02-27T20:04:20.335Z,57.01
2018-02-27T20:06:47.786Z,56.98
2018-02-27T20:09:15.207Z,57.56
2018-02-27T20:11:42.635Z,57.51
2018-02-27T20:17:03.809Z,58.09
2018-02-27T20:19:31.246Z,58.21
2018-02-27T20:21:58.614Z,58.25
2018-02-27T20:24:26.062Z,58.54
2018-02-27T20:26:53.475Z,58.11
2018-02-27T20:29:20.906Z,58.29
2018-02-27T20:31:48.318Z,58.05
2018-02-27T20:34:15.770Z,58.39
2018-02-27T20:36:43.190Z,58.47
2018-02-27T20:39:15.990Z,58.32
2018-02-27T20:41:43.418Z,58.16
2018-02-27T20:44:10.849Z,58.49
2018-02-27T20:46:38.265Z,58.39
2018-02-27T20:49:05.682Z,58.43
2018-02-27T20:51:33.107Z,58.75
2018-02-27T20:54:00.521Z,58.88
2018-02-27T20:56:27.962Z,58.63
2018-02-27T20:58:55.377Z,58.99
2018-02-27T21:01:22.797Z,59.39
2018-02-27T21:03:50.229Z,59.36
2018-02-27T21:06:17.643Z,59.56
2018-02-27T21:08:45.065Z,59.88
2018-02-27T21:11:12.497Z,59.76
2018-02-27T21:13:39.926Z,60.18
2018-02-27T21:16:07.337Z,60.42
2018-02-27T21:18:34.767Z,60.02
2018-02-27T21:21:02.258Z,60.45
2018-02-27T21:23:29.678Z,60.56
2018-02-27T21:25:57.102Z,60.71
2018-02-27T21:28:24.533Z,60.87
2018-02-27T21:30:51.964Z,60.91
2018-02-27T21:33:19.378Z,61.03
2018-02-27T21:35:46.798Z,60.95
2018-02-27T21:38:14.245Z,60.98
2018-02-27T21:40:41.678Z,61.23
2018-02-27T21:43:09.098Z,61.00
2018-02-27T21:45:36.514Z,61.37
2018-02-27T21:48:03.963Z,61.08
2018-02-27T21:50:31.367Z,61.28
2018-02-27T21:52:58.795Z,61.46
2018-02-27T21:55:26.244Z,61.46
2018-02-27T21:57:53.638Z,61.57
2018-02-27T22:00:21.085Z,61.45
2018-02-27T22:02:48.510Z,61.34
2018-02-27T22:05:15.933Z,60.91
2018-02-27T22:07:43.354Z,61.04
2018-02-27T22:10:10.774Z,61.36
2018-02-27T22:12:38.207Z,61.54
2018-02-27T22:15:05.622Z,62.10
2018-02-27T22:17:33.063Z,61.93
2018-02-27T22:20:00.474Z,62.26
2018-02-27T22:22:27.887Z,62.34
2018-02-27T22:24:55.306Z,62.76
2018-02-27T22:27:22.718Z,63.08
2018-02-27T22:29:50.145Z,63.12
2018-02-27T22:32:17.562Z,63.79
2018-02-27T22:34:45.014Z,63.72
2018-02-27T22:37:12.430Z,64.31
2018-02-27T22:39:39.850Z,64.45
2018-02-27T22:42:07.327Z,64.42
2018-02-27T22:44:34.734Z,64.52
2018-02-27T22:47:02.163Z,64.95
2018-02-27T22:49:29.638Z,64.98
2018-02-27T22:51:57.066Z,65.48
2018-02-27T22:54:24.498Z,65.92
2018-02-27T22:56:51.937Z,66.25
2018-02-27T22:59:19.353Z,66.56
2018-02-27T23:01:46.798Z,66.82
2018-02-27T23:04:14.213Z,66.91
2018-02-27T23:06:41.630Z,67.04
2018-02-27T23:09:09.086Z,67.18
2018-02-27T23:11:36.494Z,67.73
2018-02-27T23:14:03.917Z,67.63
2018-02-27T23:16:31.340Z,67.65
2018-02-27T23:18:58.757Z,67.74
2018-02-27T23:21:26.181Z,68.02
2018-02-27T23:23:54.046Z,67.95
2018-02-27T23:26:26.378Z,67.97
2018-02-27T23:28:54.118Z,68.02
2018-02-27T23:31:21.613Z,68.24
2018-02-27T23:33:59.242Z,68.31
2018-02-27T23:36:26.676Z,68.48
2018-02-27T23:38:54.089Z,68.28
2018-02-27T23:41:21.506Z,68.07
2018-02-27T23:43:48.930Z,68.21
2018-02-27T23:46:16.348Z,68.27
2018-02-27T23:48:43.766Z,67.99
2018-02-27T23:51:11.182Z,67.76
2018-02-27T23:53:38.621Z,67.74
2018-02-27T23:56:06.038Z,67.90
2018-02-27T23:58:33.463Z,68.08
